Time;durP1;ratioP1;P1;durP2;ratioP2;P2;SDS_P1;SDS_P2;PMS_P1;PMS_P2;Temp;Humidity;BMP_temperature;BMP_pressure;BME280_temperature;BME280_humidity;BME280_pressure;Samples;Min_cycle;Max_cycle;Signal;HPM_P1;HPM_P2
2022/10/20 04:30:32;;;;;;;;;6.50;6.50;;;;;19.14;81.76;100685.84;5133620;27;46658;-80
2022/10/20 04:32:57;;;;;;;;;5.00;5.00;;;;;19.05;80.92;100700.22;5118265;27;45347;-80
2022/10/20 04:35:22;;;;;;;;;7.00;5.00;;;;;18.88;80.43;100687.16;5118435;27;45494;-80
2022/10/20 04:37:48;;;;;;;;;6.75;5.25;;;;;18.94;81.42;100715.66;5118503;27;45381;-79
2022/10/20 04:40:13;;;;;;;;;7.75;6.50;;;;;18.82;82.34;100718.38;5099753;27;48370;-79
2022/10/20 04:42:38;;;;;;;;;8.75;7.25;;;;;18.81;82.14;100713.06;5118291;27;45448;-78
2022/10/20 04:45:04;;;;;;;;;6.00;6.00;;;;;18.80;82.32;100706.75;5100140;27;45319;-80
2022/10/20 04:47:33;;;;;;;;;9.75;6.50;;;;;18.77;82.54;100698.88;5118283;27;45373;-80
2022/10/20 04:49:58;;;;;;;;;7.00;7.00;;;;;18.64;82.83;100694.53;5120287;27;46043;-80
2022/10/20 04:52:23;;;;;;;;;9.25;7.00;;;;;18.71;83.44;100695.81;5102648;27;46195;-79
2022/10/20 04:54:49;;;;;;;;;5.25;5.25;;;;;18.71;82.96;100698.53;5121219;27;45446;-81
2022/10/20 04:57:14;;;;;;;;;6.75;6.00;;;;;18.73;83.45;100691.94;5117401;27;45534;-81
2022/10/20 04:59:39;;;;;;;;;7.50;7.00;;;;;18.74;83.46;100693.69;5097556;27;45260;-80
2022/10/20 05:02:05;;;;;;;;;8.50;6.75;;;;;18.75;83.09;100705.41;5099491;27;45862;-79
2022/10/20 05:04:30;;;;;;;;;7.50;7.50;;;;;18.70;82.81;100692.22;5118038;27;45368;-80
2022/10/20 05:06:55;;;;;;;;;7.00;7.00;;;;;18.63;83.11;100699.09;5118309;27;45630;-80
2022/10/20 05:09:21;;;;;;;;;9.75;8.00;;;;;18.55;83.07;100693.38;5118961;27;46446;-76
2022/10/20 05:11:46;;;;;;;;;15.00;10.75;;;;;18.61;83.35;100713.81;5117768;27;45323;-79
2022/10/20 05:14:12;;;;;;;;;9.00;7.25;;;;;18.67;83.29;100729.59;5110163;27;45506;-80
2022/10/20 05:16:37;;;;;;;;;9.00;9.00;;;;;18.43;83.47;100695.25;5117704;27;45320;-79
2022/10/20 05:19:02;;;;;;;;;8.25;7.25;;;;;18.46;83.28;100692.28;5118041;27;45900;-81
2022/10/20 05:21:30;;;;;;;;;8.50;6.25;;;;;18.58;82.87;100714.91;5079755;27;45295;-76
2022/10/20 05:23:58;;;;;;;;;8.50;6.00;;;;;18.65;82.27;100726.13;5097357;27;45342;-80
2022/10/20 05:26:25;;;;;;;;;8.25;7.25;;;;;18.58;82.49;100717.63;5096906;27;45535;-78
2022/10/20 05:28:51;;;;;;;;;9.75;8.50;;;;;18.63;82.41;100733.56;5097298;27;46566;-77
2022/10/20 05:31:19;;;;;;;;;8.00;7.25;;;;;18.59;82.33;100734.78;5110698;27;45435;-76
2022/10/20 05:33:47;;;;;;;;;7.50;5.50;;;;;18.55;82.42;100725.97;5086906;27;45484;-80
2022/10/20 05:36:16;;;;;;;;;6.50;6.50;;;;;18.64;81.90;100738.84;5102669;27;45462;-81
2022/10/20 05:38:41;;;;;;;;;6.00;6.00;;;;;18.61;81.96;100751.81;5097093;27;45480;-75
2022/10/20 05:41:12;;;;;;;;;9.25;7.50;;;;;18.51;81.93;100729.94;5096582;27;45471;-78
2022/10/20 05:43:38;;;;;;;;;8.50;6.50;;;;;18.54;81.56;100746.00;5097074;27;45959;-69
2022/10/20 05:46:04;;;;;;;;;6.75;5.00;;;;;18.49;81.28;100731.91;5096537;27;45344;-73
2022/10/20 05:48:30;;;;;;;;;5.00;4.50;;;;;18.50;80.84;100728.19;5096774;27;46364;-71
2022/10/20 05:51:06;;;;;;;;;6.75;6.75;;;;;18.48;80.66;100720.16;5096408;27;45528;-69
2022/10/20 05:53:31;;;;;;;;;5.50;4.00;;;;;18.40;80.33;100722.63;5107168;27;45448;-70
2022/10/20 05:56:02;;;;;;;;;4.00;4.00;;;;;18.39;80.96;100718.19;5100042;27;46288;-70
2022/10/20 05:58:27;;;;;;;;;5.75;4.50;;;;;18.38;80.54;100713.72;5107314;27;46550;-73
2022/10/20 06:00:53;;;;;;;;;3.75;2.50;;;;;18.25;80.65;100704.84;5117042;27;45365;-74
2022/10/20 06:03:18;;;;;;;;;4.50;4.00;;;;;18.24;80.43;100694.97;5117517;27;45283;-75
2022/10/20 06:05:44;;;;;;;;;5.25;5.00;;;;;18.31;80.84;100677.22;5116953;27;45410;-72
2022/10/20 06:08:09;;;;;;;;;7.25;5.25;;;;;18.30;80.57;100658.31;5116891;27;53437;-70
2022/10/20 06:10:34;;;;;;;;;5.75;4.50;;;;;18.36;81.42;100633.44;5112673;27;45246;-69
2022/10/20 06:13:00;;;;;;;;;6.50;5.75;;;;;18.41;81.69;100614.91;5098735;27;45327;-70
2022/10/20 06:15:25;;;;;;;;;6.00;6.00;;;;;18.41;81.30;100583.22;5097957;27;45514;-71
2022/10/20 06:17:50;;;;;;;;;5.00;5.00;;;;;18.40;81.51;100592.34;5097660;27;45499;-72
2022/10/20 06:20:16;;;;;;;;;2.00;2.00;;;;;18.47;82.12;100615.28;5103475;27;45413;-71
2022/10/20 06:22:41;;;;;;;;;4.00;4.00;;;;;18.41;81.97;100580.50;5104417;27;45921;-70
2022/10/20 06:25:07;;;;;;;;;7.00;6.00;;;;;18.48;81.57;100589.84;5094994;27;45434;-73
2022/10/20 06:27:32;;;;;;;;;7.00;4.75;;;;;18.49;80.92;100594.31;5096207;27;47108;-72
2022/10/20 06:29:57;;;;;;;;;6.75;5.00;;;;;18.45;80.91;100576.56;5096250;27;45384;-71
2022/10/20 06:32:23;;;;;;;;;6.25;4.50;;;;;18.51;80.72;100597.78;5119663;27;45317;-69
2022/10/20 06:34:48;;;;;;;;;6.00;5.00;;;;;18.51;80.85;100599.63;5116544;27;45483;-70
2022/10/20 06:37:13;;;;;;;;;3.75;3.75;;;;;18.48;80.50;100591.72;5116423;27;46027;-70
2022/10/20 06:39:39;;;;;;;;;5.50;4.00;;;;;18.43;81.40;100585.81;5116945;27;45349;-71
2022/10/20 06:42:05;;;;;;;;;7.50;6.25;;;;;18.40;81.30;100586.91;5116740;27;45359;-70
2022/10/20 06:44:31;;;;;;;;;3.75;1.75;;;;;18.47;81.16;100598.13;5116168;27;45365;-71
2022/10/20 06:46:56;;;;;;;;;11.00;5.00;;;;;18.46;81.33;100607.25;5116212;27;45297;-71
2022/10/20 06:49:21;;;;;;;;;5.00;5.00;;;;;18.46;80.73;100620.81;5116135;27;45274;-71
2022/10/20 06:51:47;;;;;;;;;6.50;5.25;;;;;18.44;80.38;100637.25;5116621;27;45302;-71
2022/10/20 06:54:12;;;;;;;;;6.50;4.75;;;;;18.43;80.51;100656.38;5115066;27;45311;-69
2022/10/20 06:56:38;;;;;;;;;8.00;6.50;;;;;18.36;80.59;100653.31;5116501;27;45489;-70
2022/10/20 06:59:03;;;;;;;;;6.00;6.00;;;;;18.32;81.05;100672.66;5132428;27;45218;-71
2022/10/20 07:01:31;;;;;;;;;5.75;5.75;;;;;18.19;82.24;100688.19;5137252;27;45333;-72
2022/10/20 07:04:03;;;;;;;;;6.25;6.25;;;;;18.06;82.57;100683.69;5136429;27;45562;-71
2022/10/20 07:06:31;;;;;;;;;6.00;6.00;;;;;18.07;82.29;100701.72;5136655;27;46163;-71
2022/10/20 07:08:57;;;;;;;;;7.00;7.00;;;;;18.03;82.18;100704.78;5136479;27;45388;-72
2022/10/20 07:11:26;;;;;;;;;7.75;5.75;;;;;17.96;82.47;100707.09;5114804;27;45313;-72
2022/10/20 07:13:51;;;;;;;;;7.25;7.00;;;;;18.00;83.07;100711.31;5134546;27;45365;-70
2022/10/20 07:16:20;;;;;;;;;7.75;7.00;;;;;17.99;82.49;100716.84;5136587;27;45538;-71
2022/10/20 07:18:46;;;;;;;;;7.75;6.00;;;;;18.02;82.61;100711.19;5136452;27;45770;-69
2022/10/20 07:21:14;;;;;;;;;9.50;6.25;;;;;17.99;82.15;100709.59;5118776;27;45459;-71
2022/10/20 07:23:40;;;;;;;;;4.50;4.50;;;;;17.89;82.66;100716.69;5115571;27;45437;-71
2022/10/20 07:26:13;;;;;;;;;6.50;6.50;;;;;17.91;82.65;100719.28;5115938;27;45761;-71
2022/10/20 07:28:41;;;;;;;;;6.00;6.00;;;;;17.88;83.08;100720.38;5115641;27;45326;-71
2022/10/20 07:31:11;;;;;;;;;5.00;5.00;;;;;17.87;82.54;100713.22;5123066;27;45449;-71
2022/10/20 07:33:36;;;;;;;;;4.25;4.00;;;;;17.77;81.90;100713.09;5124110;27;45482;-71
2022/10/20 07:36:13;;;;;;;;;6.25;6.25;;;;;17.86;82.07;100719.66;5138081;27;45478;-70
2022/10/20 07:38:39;;;;;;;;;4.75;4.75;;;;;17.79;82.29;100715.66;5138101;27;45307;-71
2022/10/20 07:41:04;;;;;;;;;5.00;5.00;;;;;17.89;81.80;100722.13;5137194;27;45278;-71
2022/10/20 07:43:29;;;;;;;;;4.00;4.00;;;;;17.88;81.60;100714.97;5136424;27;45461;-71
2022/10/20 07:45:55;;;;;;;;;6.00;6.00;;;;;17.96;81.83;100714.38;5136249;27;45278;-71
2022/10/20 07:48:20;;;;;;;;;3.25;3.25;;;;;17.99;82.14;100708.72;5136132;27;45271;-70
2022/10/20 07:50:46;;;;;;;;;4.50;4.50;;;;;18.01;81.62;100720.31;5136076;27;45308;-69
2022/10/20 07:53:11;;;;;;;;;5.50;5.50;;;;;18.04;80.91;100707.38;5136298;27;45235;-72
2022/10/20 07:55:36;;;;;;;;;7.75;7.75;;;;;18.09;81.05;100726.88;5135917;27;52232;-70
2022/10/20 07:58:02;;;;;;;;;5.00;5.00;;;;;18.06;81.17;100718.09;5124826;27;45399;-71
2022/10/20 08:00:27;;;;;;;;;5.00;3.00;;;;;18.07;81.04;100706.28;5110862;27;45467;-70
2022/10/20 08:02:52;;;;;;;;;5.25;5.25;;;;;18.09;80.95;100707.03;5115295;27;45178;-71
2022/10/20 08:05:18;;;;;;;;;6.75;6.75;;;;;18.12;80.72;100712.19;5117342;27;45484;-71
2022/10/20 08:07:43;;;;;;;;;5.00;5.00;;;;;18.15;80.86;100710.13;5118986;27;45383;-71
2022/10/20 08:10:09;;;;;;;;;7.00;5.50;;;;;18.17;80.91;100710.00;5118838;27;45524;-71
2022/10/20 08:12:34;;;;;;;;;6.75;6.75;;;;;18.23;80.65;100712.22;5126897;27;45419;-71
2022/10/20 08:14:59;;;;;;;;;7.50;5.75;;;;;18.29;80.23;100708.19;5139533;27;45514;-70
2022/10/20 08:17:26;;;;;;;;;5.00;5.00;;;;;18.33;80.35;100710.53;5139598;27;45418;-70
2022/10/20 08:19:51;;;;;;;;;8.50;6.00;;;;;18.33;80.62;100704.22;5132969;27;45337;-70
2022/10/20 08:22:18;;;;;;;;;4.50;4.00;;;;;18.35;80.51;100694.13;5118319;27;45377;-72
2022/10/20 08:24:44;;;;;;;;;6.25;5.00;;;;;18.38;80.48;100718.28;5118523;27;45519;-71
2022/10/20 08:27:09;;;;;;;;;5.25;3.75;;;;;18.39;80.40;100707.31;5118653;27;45457;-72
2022/10/20 08:29:35;;;;;;;;;7.00;6.00;;;;;18.33;79.89;100696.97;5118712;27;45373;-70
2022/10/20 08:32:00;;;;;;;;;6.75;5.00;;;;;18.46;79.73;100715.84;5126200;27;45338;-69
2022/10/20 08:34:26;;;;;;;;;5.00;5.00;;;;;18.47;79.20;100712.16;5118384;27;45447;-71
2022/10/20 08:36:51;;;;;;;;;6.50;5.50;;;;;18.48;79.16;100720.16;5118637;27;45374;-71
2022/10/20 08:39:17;;;;;;;;;11.25;7.25;;;;;18.47;79.08;100714.84;5118353;27;45480;-71
2022/10/20 08:41:45;;;;;;;;;8.50;8.00;;;;;18.43;79.22;100705.25;5118611;27;45270;-71
2022/10/20 08:44:18;;;;;;;;;7.00;5.00;;;;;18.46;78.96;100719.41;5118344;27;45644;-71
2022/10/20 08:46:43;;;;;;;;;8.00;7.50;;;;;18.48;79.13;100725.59;5118269;27;45327;-71
2022/10/20 08:49:23;;;;;;;;;10.50;7.50;;;;;18.51;78.84;100724.50;5118061;27;45418;-70
2022/10/20 08:51:48;;;;;;;;;5.00;5.00;;;;;18.38;78.53;100699.28;5118256;27;45317;-71
2022/10/20 08:54:15;;;;;;;;;5.50;5.50;;;;;18.50;79.00;100737.22;5119211;27;45415;-70
2022/10/20 08:56:41;;;;;;;;;4.50;4.50;;;;;18.50;78.92;100718.22;5120587;27;45327;-71
2022/10/20 08:59:27;;;;;;;;;4.50;4.50;;;;;18.49;78.83;100718.31;5136747;27;45484;-70
2022/10/20 09:01:55;;;;;;;;;5.25;4.75;;;;;18.50;78.92;100723.63;5139193;27;45551;-71
2022/10/20 09:04:26;;;;;;;;;7.00;4.50;;;;;18.52;79.01;100737.97;5138198;27;46415;-72
2022/10/20 09:07:14;;;;;;;;;2.50;2.50;;;;;18.49;79.02;100724.63;5138816;27;45321;-71
2022/10/20 09:09:39;;;;;;;;;1.75;1.75;;;;;18.42;79.63;100719.81;5139095;27;45485;-71
2022/10/20 09:12:06;;;;;;;;;5.00;3.00;;;;;18.49;79.59;100737.31;5120826;27;45687;-71
2022/10/20 09:14:35;;;;;;;;;4.00;4.00;;;;;18.48;79.89;100735.59;5118034;27;45416;-72
2022/10/20 09:17:01;;;;;;;;;4.00;3.50;;;;;18.35;79.52;100719.44;5116806;27;45273;-72
2022/10/20 09:19:27;;;;;;;;;4.00;3.50;;;;;18.44;79.81;100726.84;5120354;27;45202;-70
2022/10/20 09:21:56;;;;;;;;;2.00;2.00;;;;;18.47;79.78;100736.56;5120755;27;45467;-71
2022/10/20 09:24:25;;;;;;;;;3.00;3.00;;;;;18.50;79.19;100714.63;5117934;27;45505;-72
2022/10/20 09:26:51;;;;;;;;;2.50;2.50;;;;;18.52;79.35;100721.66;5117925;27;45402;-70
2022/10/20 09:29:20;;;;;;;;;2.25;2.25;;;;;18.46;78.67;100716.72;5118130;27;45322;-71
2022/10/20 09:31:48;;;;;;;;;2.00;2.00;;;;;18.56;78.20;100705.13;5124784;27;45705;-70
2022/10/20 09:34:31;;;;;;;;;5.50;4.00;;;;;18.56;78.19;100715.97;5117260;27;46402;-71
2022/10/20 09:37:11;;;;;;;;;4.00;3.00;;;;;18.46;78.04;100681.41;5125239;27;45423;-72
2022/10/20 09:39:39;;;;;;;;;5.00;2.25;;;;;18.68;77.88;100709.63;5138073;27;45624;-71
2022/10/20 09:42:13;;;;;;;;;0.75;0.75;;;;;18.72;77.80;100716.50;5138416;27;45274;-71
2022/10/20 09:44:47;;;;;;;;;5.75;3.00;;;;;18.65;77.45;100686.28;5138094;27;46455;-70
2022/10/20 09:47:15;;;;;;;;;3.00;3.00;;;;;18.77;77.11;100712.47;5138216;27;45383;-71
2022/10/20 09:49:43;;;;;;;;;4.50;4.00;;;;;18.86;76.83;100705.41;5137659;27;45622;-71
2022/10/20 09:52:29;;;;;;;;;2.75;2.00;;;;;18.90;76.55;100704.16;5119152;27;45586;-71
2022/10/20 09:55:17;;;;;;;;;3.50;2.75;;;;;18.90;76.05;100702.31;5138047;27;45271;-71
2022/10/20 09:57:47;;;;;;;;;4.00;2.00;;;;;18.98;76.24;100700.81;5109008;27;45236;-72
2022/10/20 10:00:24;;;;;;;;;4.50;4.00;;;;;19.05;75.54;100715.66;5138023;27;45518;-71
2022/10/20 10:03:07;;;;;;;;;3.00;3.00;;;;;19.10;74.84;100717.00;5137763;27;45330;-70
2022/10/20 10:05:33;;;;;;;;;3.00;3.00;;;;;19.09;74.75;100698.09;5137432;27;45340;-70
2022/10/20 10:07:59;;;;;;;;;3.25;2.00;;;;;19.23;73.73;100697.81;5137828;27;45313;-71
2022/10/20 10:10:29;;;;;;;;;3.00;2.75;;;;;19.29;72.93;100705.50;5134482;27;45305;-71
2022/10/20 10:13:02;;;;;;;;;2.50;2.50;;;;;19.35;72.15;100704.97;5117249;27;45497;-70
2022/10/20 10:15:35;;;;;;;;;2.00;1.50;;;;;19.44;72.34;100692.47;5122859;27;45637;-69
2022/10/20 10:18:13;;;;;;;;;2.00;2.00;;;;;19.37;70.08;100675.81;5138804;27;45435;-72
2022/10/20 10:20:39;;;;;;;;;3.25;2.25;;;;;19.53;70.02;100686.28;5125279;27;45404;-71
2022/10/20 10:23:21;;;;;;;;;3.00;3.00;;;;;19.73;69.86;100699.09;5116960;27;46939;-72
2022/10/20 10:25:48;;;;;;;;;1.50;1.25;;;;;19.84;70.36;100688.13;5137204;27;46066;-72
2022/10/20 10:28:29;;;;;;;;;4.75;3.75;;;;;19.89;69.09;100682.31;5137292;27;45349;-71
2022/10/20 10:31:10;;;;;;;;;0.50;0.50;;;;;20.03;68.64;100693.72;5131769;27;45393;-71
2022/10/20 10:33:35;;;;;;;;;0.75;0.75;;;;;20.02;67.90;100672.94;5123783;27;45332;-75
2022/10/20 10:36:05;;;;;;;;;1.75;1.75;;;;;20.09;67.96;100670.56;5136983;27;46508;-73
2022/10/20 10:38:30;;;;;;;;;2.50;1.75;;;;;20.05;66.21;100660.09;5137204;27;45368;-74
2022/10/20 10:41:01;;;;;;;;;0.75;0.00;;;;;20.12;66.22;100685.75;5137346;27;45256;-74
2022/10/20 10:43:49;;;;;;;;;0.00;0.00;;;;;20.11;65.95;100673.16;5109970;27;45413;-72
2022/10/20 10:46:19;;;;;;;;;0.50;0.50;;;;;19.96;65.14;100645.41;5134584;27;46219;-76
2022/10/20 10:49:00;;;;;;;;;2.50;2.00;;;;;20.18;65.48;100671.63;5136746;27;45201;-72
2022/10/20 10:51:50;;;;;;;;;1.00;1.00;;;;;20.23;64.02;100662.06;5136974;27;45305;-72
2022/10/20 10:54:34;;;;;;;;;2.00;2.00;;;;;20.49;63.88;100667.13;5136995;27;45404;-73
2022/10/20 10:57:13;;;;;;;;;4.00;1.50;;;;;20.87;63.61;100653.63;5134337;27;45419;-71
2022/10/20 10:59:42;;;;;;;;;3.50;2.75;;;;;21.00;63.83;100647.97;5116240;27;45357;-71
2022/10/20 11:02:26;;;;;;;;;3.00;1.50;;;;;21.12;61.28;100644.97;5116060;27;45293;-71
2022/10/20 11:05:10;;;;;;;;;3.00;3.00;;;;;21.58;60.33;100648.94;5115849;27;45700;-71
2022/10/20 11:07:43;;;;;;;;;2.00;2.00;;;;;22.10;58.85;100653.09;5115649;27;45360;-74
2022/10/20 11:10:22;;;;;;;;;2.50;1.25;;;;;23.02;56.66;100634.06;5115812;27;45386;-72
2022/10/20 11:13:10;;;;;;;;;1.25;1.25;;;;;23.73;53.20;100640.47;5126021;27;45297;-71
2022/10/20 11:16:06;;;;;;;;;1.00;1.00;;;;;24.95;50.71;100637.72;5136375;27;45360;-72
2022/10/20 11:18:53;;;;;;;;;0.25;0.25;;;;;25.92;47.16;100622.34;5136264;27;46169;-71
2022/10/20 11:21:30;;;;;;;;;2.00;1.00;;;;;27.04;44.76;100621.41;5117403;27;45374;-73
2022/10/20 11:24:41;;;;;;;;;0.50;0.50;;;;;27.76;42.74;100622.84;5115805;27;45335;-73
2022/10/20 11:27:25;;;;;;;;;0.75;0.75;;;;;27.90;41.78;100615.69;5110918;27;45672;-72
2022/10/20 11:29:53;;;;;;;;;0.25;0.25;;;;;27.58;43.32;100607.66;5136811;27;46276;-72
2022/10/20 11:32:32;;;;;;;;;0.00;0.00;;;;;27.15;43.17;100615.47;5118465;27;45389;-71
2022/10/20 11:35:02;;;;;;;;;1.00;1.00;;;;;26.62;44.71;100614.34;5115393;27;45352;-71
2022/10/20 11:37:40;;;;;;;;;2.75;0.75;;;;;26.59;45.03;100600.94;5116038;27;45428;-71
2022/10/20 11:40:06;;;;;;;;;0.00;0.00;;;;;27.29;43.02;100592.69;5106361;27;45838;-73
2022/10/20 11:42:40;;;;;;;;;0.75;0.75;;;;;28.31;42.26;100590.50;5137738;27;45331;-72
2022/10/20 11:45:24;;;;;;;;;1.00;1.00;;;;;29.49;40.28;100586.56;5137777;27;45318;-71
2022/10/20 11:48:03;;;;;;;;;2.00;1.25;;;;;30.50;38.85;100576.13;5098246;27;45593;-73
2022/10/20 11:50:30;;;;;;;;;0.00;0.00;;;;;31.08;36.36;100564.53;5128905;27;45257;-72
2022/10/20 11:53:17;;;;;;;;;0.00;0.00;;;;;31.63;36.55;100567.25;5135901;27;45222;-72
2022/10/20 11:55:53;;;;;;;;;0.00;0.00;;;;;32.32;34.72;100556.59;5136182;27;45542;-73
2022/10/20 11:58:41;;;;;;;;;3.00;2.00;;;;;33.08;33.88;100547.56;5122353;27;45301;-73
2022/10/20 12:01:19;;;;;;;;;1.00;1.00;;;;;34.04;32.04;100550.97;5098869;27;45667;-73
2022/10/20 12:03:53;;;;;;;;;1.00;1.00;;;;;34.63;30.89;100543.94;5096539;27;45260;-72
2022/10/20 12:06:37;;;;;;;;;0.33;0.33;;;;;35.06;30.44;100553.06;5115288;27;45531;-71
2022/10/20 12:09:24;;;;;;;;;0.67;0.67;;;;;35.10;29.90;100548.75;5115159;27;45535;-72
2022/10/20 12:11:49;;;;;;;;;1.00;0.00;;;;;34.97;30.09;100540.53;5116576;27;46835;-72
2022/10/20 12:14:14;;;;;;;;;1.00;1.00;;;;;34.86;29.75;100541.34;5135969;27;45289;-73
2022/10/20 12:17:24;;;;;;;;;2.33;1.33;;;;;35.04;30.33;100538.53;5135864;27;45234;-72
2022/10/20 12:19:50;;;;;;;;;0.33;0.33;;;;;34.56;30.73;100530.13;5129377;27;45636;-72
2022/10/20 12:22:15;;;;;;;;;1.00;1.00;;;;;34.09;31.15;100532.53;5114887;27;45311;-73
2022/10/20 12:24:53;;;;;;;;;2.00;1.00;;;;;33.82;31.73;100533.00;5114677;27;45350;-73
2022/10/20 12:27:18;;;;;;;;;1.67;0.67;;;;;33.51;32.67;100519.97;5115016;27;45230;-72
2022/10/20 12:29:43;;;;;;;;;1.00;1.00;;;;;33.61;32.30;100523.06;5114601;27;45215;-72
2022/10/20 12:32:44;;;;;;;;;3.67;2.00;;;;;33.11;32.90;100513.78;5121488;27;46204;-73
2022/10/20 12:35:09;;;;;;;;;0.67;0.67;;;;;33.02;33.21;100516.81;5044329;27;45371;-72
2022/10/20 12:37:36;;;;;;;;;3.00;2.00;;;;;32.75;33.14;100511.66;5128804;27;45350;-71
2022/10/20 12:40:07;;;;;;;;;1.67;1.67;;;;;32.74;33.27;100519.13;5136049;27;45469;-71
2022/10/20 12:42:36;;;;;;;;;2.00;0.33;;;;;32.64;33.54;100516.78;5135301;27;45321;-72
2022/10/20 12:45:36;;;;;;;;;1.00;1.00;;;;;32.63;33.76;100506.75;5135476;27;45440;-73
2022/10/20 12:48:03;;;;;;;;;0.33;0.33;;;;;31.99;34.38;100514.97;5089196;27;45258;-73
2022/10/20 12:50:41;;;;;;;;;0.67;0.67;;;;;31.29;35.58;100510.06;5135621;27;45581;-72
2022/10/20 12:53:16;;;;;;;;;1.50;0.75;;;;;30.68;36.71;100518.34;5139051;27;46326;-72
2022/10/20 12:55:43;;;;;;;;;2.00;1.00;;;;;29.98;37.73;100500.91;5138833;27;45316;-71
2022/10/20 12:58:25;;;;;;;;;1.00;1.00;;;;;29.40;38.68;100498.50;5127159;27;45345;-72
2022/10/20 13:00:50;;;;;;;;;1.00;1.00;;;;;28.93;38.82;100510.91;5118130;27;45537;-73
2022/10/20 13:03:31;;;;;;;;;0.75;0.75;;;;;28.13;39.24;100495.19;5119736;27;45353;-73
2022/10/20 13:05:58;;;;;;;;;3.75;0.50;;;;;27.79;39.92;100492.13;5127519;27;45404;-72
2022/10/20 13:08:26;;;;;;;;;2.50;1.00;;;;;27.48;41.66;100489.44;5140663;27;45389;-71
2022/10/20 13:10:55;;;;;;;;;0.75;0.75;;;;;27.24;42.27;100475.91;5132088;27;45318;-72
2022/10/20 13:13:20;;;;;;;;;0.50;0.50;;;;;27.08;42.45;100479.66;5117474;27;45365;-72
2022/10/20 13:15:50;;;;;;;;;1.50;0.75;;;;;26.80;43.64;100482.03;5117975;27;45314;-72
2022/10/20 13:18:30;;;;;;;;;0.25;0.25;;;;;26.59;43.97;100471.69;5117808;27;45342;-72
2022/10/20 13:20:58;;;;;;;;;0.00;0.00;;;;;26.40;44.06;100477.63;5123316;27;45487;-72
2022/10/20 13:23:38;;;;;;;;;0.75;0.75;;;;;26.19;44.81;100475.47;5117441;27;45397;-71
2022/10/20 13:26:15;;;;;;;;;0.75;0.75;;;;;26.00;44.37;100465.72;5117770;27;45342;-71
2022/10/20 13:28:46;;;;;;;;;0.75;0.75;;;;;26.04;44.98;100463.47;5117678;27;45345;-71
2022/10/20 13:31:12;;;;;;;;;2.50;1.50;;;;;26.65;44.54;100453.59;5125099;27;45378;-73
2022/10/20 13:34:06;;;;;;;;;1.00;0.25;;;;;27.77;41.59;100450.13;5117186;27;45959;-72
2022/10/20 13:36:59;;;;;;;;;2.00;0.50;;;;;28.75;40.09;100442.34;5083954;27;45523;-72
2022/10/20 13:39:43;;;;;;;;;1.75;1.00;;;;;29.76;37.69;100443.13;5119543;27;45451;-73
2022/10/20 13:42:39;;;;;;;;;2.00;1.00;;;;;30.71;36.42;100440.47;5138022;27;45612;-73
2022/10/20 13:45:18;;;;;;;;;2.00;1.00;;;;;31.53;35.64;100446.56;5138194;27;45491;-71
2022/10/20 13:48:05;;;;;;;;;2.00;0.00;;;;;32.31;34.80;100449.44;5119365;27;45352;-72
2022/10/20 13:50:35;;;;;;;;;0.50;0.50;;;;;32.65;33.08;100437.97;5138065;27;45563;-73
2022/10/20 13:53:08;;;;;;;;;0.75;0.75;;;;;33.26;33.16;100447.69;5137692;27;45546;-71
2022/10/20 13:56:02;;;;;;;;;2.50;1.00;;;;;33.78;32.42;100443.59;5103873;27;46986;-73
2022/10/20 13:58:28;;;;;;;;;0.67;0.67;;;;;34.30;30.79;100441.34;5129698;27;45291;-72
2022/10/20 14:01:03;;;;;;;;;1.50;1.00;;;;;34.60;30.45;100445.03;5137852;27;45279;-73
2022/10/20 14:03:32;;;;;;;;;1.00;1.00;;;;;34.74;30.20;100446.59;5137187;27;45330;-73
2022/10/20 14:05:58;;;;;;;;;1.00;1.00;;;;;34.67;29.43;100440.22;5137706;27;45441;-73
2022/10/20 14:08:24;;;;;;;;;0.33;0.33;;;;;34.63;29.56;100433.41;5137415;27;45339;-73
2022/10/20 14:11:03;;;;;;;;;2.00;0.00;;;;;34.52;29.64;100440.66;5130899;27;45412;-70
2022/10/20 14:13:33;;;;;;;;;2.00;2.00;;;;;34.50;30.40;100437.25;5116899;27;45375;-71
2022/10/20 14:16:02;;;;;;;;;0.67;0.33;;;;;34.46;29.81;100416.50;5116915;27;45515;-72
2022/10/20 14:18:34;;;;;;;;;1.00;1.00;;;;;34.52;29.92;100415.59;5116505;27;45335;-72
2022/10/20 14:21:03;;;;;;;;;2.75;1.75;;;;;34.71;29.50;100432.25;5122063;27;45406;-72
2022/10/20 14:23:37;;;;;;;;;1.00;1.00;;;;;34.79;29.19;100437.53;5116913;27;45326;-72
2022/10/20 14:26:06;;;;;;;;;3.00;1.00;;;;;34.37;29.48;100434.59;5117151;27;46116;-73
2022/10/20 14:28:34;;;;;;;;;0.33;0.33;;;;;34.01;29.80;100409.56;5117186;27;45299;-73
2022/10/20 14:31:00;;;;;;;;;1.33;1.33;;;;;33.57;30.88;100428.16;5124455;27;45309;-72
2022/10/20 14:33:28;;;;;;;;;2.00;2.00;;;;;33.60;30.69;100424.09;5118423;27;45571;-74
2022/10/20 14:35:57;;;;;;;;;1.67;0.67;;;;;33.44;30.92;100406.88;5118088;27;45493;-72
2022/10/20 14:38:32;;;;;;;;;1.00;1.00;;;;;33.50;31.27;100405.16;5123270;27;45341;-72
2022/10/20 14:40:58;;;;;;;;;3.25;1.00;;;;;33.43;30.88;100396.03;5137426;27;45326;-71
2022/10/20 14:43:33;;;;;;;;;1.00;1.00;;;;;33.15;31.52;100401.13;5137304;27;45568;-71
2022/10/20 14:46:00;;;;;;;;;2.25;2.00;;;;;32.66;32.53;100389.72;5136801;27;45310;-73
2022/10/20 14:48:36;;;;;;;;;2.25;1.00;;;;;32.19;33.01;100390.16;5136945;27;45329;-72
2022/10/20 14:51:42;;;;;;;;;3.00;2.00;;;;;31.39;33.77;100371.97;5137226;27;45338;-71
2022/10/20 14:54:15;;;;;;;;;1.75;1.75;;;;;31.09;34.47;100386.25;5136675;27;45704;-71
2022/10/20 14:56:53;;;;;;;;;2.00;2.00;;;;;30.71;35.45;100380.41;5136789;27;47100;-72
2022/10/20 14:59:25;;;;;;;;;2.50;2.00;;;;;30.29;36.52;100377.91;5115988;27;45353;-72
2022/10/20 15:02:17;;;;;;;;;1.75;1.50;;;;;29.89;37.57;100386.00;5116185;27;45252;-73
2022/10/20 15:04:44;;;;;;;;;2.00;0.33;;;;;29.30;37.82;100375.38;5125578;27;46280;-72
2022/10/20 15:07:14;;;;;;;;;4.00;2.50;;;;;28.92;39.27;100368.47;5136451;27;46207;-71
2022/10/20 15:09:41;;;;;;;;;0.67;0.00;;;;;28.60;39.16;100365.16;5136284;27;45495;-71
2022/10/20 15:12:15;;;;;;;;;3.67;0.67;;;;;28.24;40.40;100358.81;5118895;27;45434;-73
2022/10/20 15:14:45;;;;;;;;;2.50;1.75;;;;;28.01;40.94;100353.41;5113343;27;45471;-75
2022/10/20 15:17:29;;;;;;;;;2.75;2.50;;;;;27.84;41.33;100346.38;5130731;27;46250;-74
2022/10/20 15:19:54;;;;;;;;;1.00;1.00;;;;;27.80;42.04;100342.31;5129542;27;45348;-76
2022/10/20 15:22:19;;;;;;;;;4.00;0.75;;;;;27.66;41.74;100330.25;5115906;27;45404;-78
2022/10/20 15:24:47;;;;;;;;;1.75;1.00;;;;;27.50;42.50;100325.78;5119437;27;45672;-75
2022/10/20 15:27:14;;;;;;;;;3.50;2.00;;;;;27.31;43.12;100314.44;5122578;27;46220;-73
2022/10/20 15:29:47;;;;;;;;;0.75;0.75;;;;;27.14;43.29;100311.03;5130715;27;45416;-75
2022/10/20 15:32:13;;;;;;;;;2.00;1.75;;;;;27.03;43.86;100333.50;5119048;27;45355;-75
2022/10/20 15:34:38;;;;;;;;;1.75;1.75;;;;;26.88;44.34;100329.84;5114864;27;45328;-75
2022/10/20 15:37:04;;;;;;;;;2.25;2.25;;;;;26.67;44.50;100328.63;5114956;27;50224;-72
2022/10/20 15:39:29;;;;;;;;;2.25;2.25;;;;;26.53;45.74;100336.84;5115390;27;45465;-70
2022/10/20 15:41:54;;;;;;;;;1.50;1.50;;;;;26.41;45.76;100344.63;5115769;27;45255;-71
2022/10/20 15:44:21;;;;;;;;;0.00;0.00;;;;;26.22;46.13;100348.66;5115191;27;45615;-72
2022/10/20 15:46:48;;;;;;;;;0.75;0.75;;;;;26.10;46.68;100341.88;5115240;27;45541;-72
2022/10/20 15:49:14;;;;;;;;;1.00;1.00;;;;;25.98;47.02;100346.91;5107212;27;45461;-71
2022/10/20 15:51:42;;;;;;;;;2.50;2.00;;;;;25.86;47.13;100361.25;5122383;27;45256;-72
2022/10/20 15:54:12;;;;;;;;;4.00;2.00;;;;;25.69;47.83;100354.94;5114580;27;45389;-73
2022/10/20 15:56:37;;;;;;;;;3.25;3.25;;;;;25.62;48.47;100360.28;5115139;27;46200;-71
2022/10/20 15:59:03;;;;;;;;;2.25;2.25;;;;;25.39;49.08;100325.50;5113791;27;45409;-72
2022/10/20 16:01:28;;;;;;;;;9.75;7.50;;;;;25.42;49.24;100358.09;5116442;27;45347;-72
2022/10/20 16:03:54;;;;;;;;;3.00;3.00;;;;;25.33;49.39;100354.50;5117394;27;45563;-70
2022/10/20 16:06:20;;;;;;;;;3.50;3.50;;;;;25.23;50.10;100351.09;5115789;27;45479;-71
2022/10/20 16:08:47;;;;;;;;;3.25;3.25;;;;;25.13;50.23;100353.16;5125533;27;45329;-70
2022/10/20 16:11:14;;;;;;;;;3.00;3.00;;;;;25.04;50.84;100362.44;5114956;27;45392;-72